Airfield :
LOGIN :

Register | Disclaimer

   EN    FR    IT 

 










Legend :    VFR   Marginal VFR   IFR   Intensive IFR   Very Intensive IFR
Visi :
Ceiling :
>= 8 km
>= 3000ft
5 to 8 km
1000 to 3000 ft
1500m to 5 km
500 to 1000 ft
800 to 1500m
200 to 500 ft
< 800m
< 200 ft
Symbols :   Thunderstorms  Fog  Heavy snow  Heavy precipitations  Wind > 20 kt
SIGMETs :     Misc.  Thunderstorms  Icing  Turbulence  Mountain Waves  Volcanic Ashes






- Airport Elevation : 59 ft
- IATA code : TSF


LIPH - Treviso

CURRENT METAR :
  • 181220Z 13008KT 110V170 CAVOK 25/12 Q1022

EXPIRED METARs :
  • 181150Z 13008KT 100V180 CAVOK 25/13 Q1023
  • 181120Z 12008KT 070V170 CAVOK 25/13 Q1023
  • 181050Z 11007KT 080V150 CAVOK 24/13 Q1023
  • 181020Z 09008KT 070V140 CAVOK 24/14 Q1023
  • 180950Z 10010KT CAVOK 23/14 Q1023

TAF TAF LIPH
Valid from the 18 at 12:00 until the 19 at 12:00 UTC


181100Z 1812/1912 09008KT CAVOK
BECMG 1812/1814 15010KT
BECMG 1817/1819 05006KT
BECMG 1909/1911 16010KT



MET'MAP, your aeronautical weather chart ! - Copyright ORBIFLY December 2007 - Disclaimer

ORBIFLY MET'MAP TEAM :

Programming & Development : Alexandra Zaïnal
Original concept : Baudouin d'Aumeries
Technical & hardware support : Manuel Goepfert
Assistance : Marc-Olivier Méhu

Contact : metmap@orbifly.com




SOURCES & CREDITS :

   NOAA